createdAt,value
2023-02-17T00:00:13.815Z,3.92
2023-02-17T00:02:43.708Z,3.83
2023-02-17T00:05:12.160Z,3.40
2023-02-17T00:07:40.617Z,3.58
2023-02-17T00:10:10.317Z,4.57
2023-02-17T00:15:07.690Z,4.05
2023-02-17T00:17:36.408Z,3.85
2023-02-17T00:20:08.378Z,4.15
2023-02-17T00:22:37.349Z,3.42
2023-02-17T00:25:06.289Z,3.15
2023-02-17T00:27:34.494Z,3.67
2023-02-17T00:30:02.918Z,3.60
2023-02-17T00:32:31.256Z,3.47
2023-02-17T00:34:59.787Z,3.40
2023-02-17T00:37:29.362Z,3.90
2023-02-17T00:42:26.104Z,3.15
2023-02-17T00:45:00.461Z,3.70
2023-02-17T00:47:28.703Z,3.45
2023-02-17T00:49:57.110Z,3.40
2023-02-17T00:52:29.750Z,3.38
2023-02-17T00:57:27.398Z,3.60
2023-02-17T00:59:56.696Z,3.38
2023-02-17T01:02:24.936Z,3.13
2023-02-17T01:04:57.656Z,4.30
2023-02-17T01:07:25.974Z,3.47
2023-02-17T01:09:55.602Z,3.08
2023-02-17T01:12:23.848Z,2.67
2023-02-17T01:14:53.336Z,4.50
2023-02-17T01:17:21.675Z,3.60
2023-02-17T01:19:50.259Z,3.20
2023-02-17T01:22:18.509Z,3.42
2023-02-17T01:24:47.357Z,3.08
2023-02-17T01:27:17.108Z,3.03
2023-02-17T01:29:46.164Z,3.10
2023-02-17T01:32:15.445Z,2.72
2023-02-17T01:34:45.635Z,3.20
2023-02-17T01:37:16.937Z,3.55
2023-02-17T01:39:45.681Z,3.15
2023-02-17T01:42:20.100Z,2.92
2023-02-17T01:45:27.869Z,3.03
2023-02-17T01:48:00.860Z,3.50
2023-02-17T01:50:33.969Z,3.22
2023-02-17T01:53:05.051Z,3.03
2023-02-17T01:55:36.698Z,3.08
2023-02-17T01:58:09.916Z,2.95
2023-02-17T02:00:38.998Z,3.10
2023-02-17T02:03:12.863Z,2.58
2023-02-17T02:05:42.972Z,3.13
2023-02-17T02:08:12.108Z,3.22
2023-02-17T02:10:40.555Z,3.72
2023-02-17T02:13:10.804Z,2.45
2023-02-17T02:15:44.762Z,3.15
2023-02-17T02:18:28.335Z,2.72
2023-02-17T02:21:47.124Z,2.70
2023-02-17T02:24:22.983Z,3.80
2023-02-17T02:27:08.131Z,2.75
2023-02-17T02:29:57.806Z,3.17
2023-02-17T02:35:16.513Z,3.03
2023-02-17T02:37:50.215Z,2.63
2023-02-17T02:40:23.691Z,2.85
2023-02-17T02:42:52.219Z,3.08
2023-02-17T02:45:21.488Z,3.20
2023-02-17T02:47:52.937Z,3.35
2023-02-17T02:50:35.188Z,2.97
2023-02-17T02:53:36.318Z,2.72
2023-02-17T02:56:17.568Z,2.95
2023-02-17T02:58:55.672Z,3.00
2023-02-17T03:01:36.302Z,3.10
2023-02-17T03:04:13.603Z,3.33
2023-02-17T03:06:49.089Z,2.60
2023-02-17T03:09:22.824Z,3.20
2023-02-17T03:11:52.924Z,2.95
2023-02-17T03:14:23.441Z,2.65
2023-02-17T03:19:24.908Z,3.05
2023-02-17T03:21:58.143Z,2.88
2023-02-17T03:24:26.976Z,2.70
2023-02-17T03:26:55.475Z,2.67
2023-02-17T03:29:23.726Z,2.92
2023-02-17T03:31:52.150Z,2.92
2023-02-17T03:34:22.390Z,2.78
2023-02-17T03:36:50.556Z,2.53
2023-02-17T03:39:18.969Z,2.38
2023-02-17T03:41:50.474Z,2.63
2023-02-17T03:44:19.085Z,2.85
2023-02-17T03:46:47.734Z,2.90
2023-02-17T03:49:17.320Z,2.80
2023-02-17T03:54:16.043Z,2.17
2023-02-17T03:56:44.414Z,2.28
2023-02-17T03:59:12.554Z,2.60
2023-02-17T04:01:40.861Z,2.78
2023-02-17T04:04:09.331Z,2.53
2023-02-17T04:06:38.213Z,3.08
2023-02-17T04:09:07.763Z,2.73
2023-02-17T04:11:35.991Z,2.95
2023-02-17T04:14:04.146Z,2.67
2023-02-17T04:16:32.598Z,2.55
2023-02-17T04:19:00.649Z,2.33
2023-02-17T04:21:28.805Z,2.90
2023-02-17T04:23:57.347Z,2.97
2023-02-17T04:26:27.163Z,2.40
2023-02-17T04:28:55.401Z,2.45
2023-02-17T04:31:24.092Z,2.67
2023-02-17T04:33:52.758Z,2.67
2023-02-17T04:36:20.914Z,2.17
2023-02-17T04:38:49.411Z,2.15
2023-02-17T04:41:18.424Z,2.63
2023-02-17T04:43:47.995Z,2.92
2023-02-17T04:46:16.531Z,2.20
2023-02-17T04:48:44.781Z,2.72
2023-02-17T04:51:12.838Z,2.67
2023-02-17T04:53:43.652Z,2.58
2023-02-17T04:56:11.807Z,2.97
2023-02-17T04:58:39.934Z,2.38
2023-02-17T05:01:09.452Z,2.53
2023-02-17T05:03:38.268Z,1.77
2023-02-17T05:06:07.937Z,2.20
2023-02-17T05:08:36.200Z,2.15
2023-02-17T05:11:04.372Z,2.42
2023-02-17T05:13:33.169Z,2.60
2023-02-17T05:16:01.419Z,2.23
2023-02-17T05:18:30.926Z,1.88
2023-02-17T05:20:59.237Z,1.75
2023-02-17T05:23:27.656Z,2.35
2023-02-17T05:25:56.454Z,2.78
2023-02-17T05:28:24.760Z,2.42
2023-02-17T05:30:52.970Z,2.35
2023-02-17T05:33:21.145Z,2.00
2023-02-17T05:35:50.673Z,2.08
2023-02-17T05:38:19.012Z,2.33
2023-02-17T05:40:47.230Z,2.08
2023-02-17T05:43:17.581Z,2.15
2023-02-17T05:45:45.994Z,1.80
2023-02-17T05:48:14.367Z,2.67
2023-02-17T05:50:45.415Z,2.42
2023-02-17T05:53:15.500Z,3.33
2023-02-17T05:55:43.861Z,2.22
2023-02-17T05:58:12.199Z,2.65
2023-02-17T06:00:40.551Z,2.60
2023-02-17T06:03:08.797Z,2.00
2023-02-17T06:05:37.193Z,2.53
2023-02-17T06:08:05.634Z,2.25
2023-02-17T06:10:35.200Z,2.15
2023-02-17T06:13:03.473Z,2.30
2023-02-17T06:15:31.554Z,2.35
2023-02-17T06:17:59.715Z,2.55
2023-02-17T06:20:27.994Z,4.13
2023-02-17T06:23:02.486Z,1.80
2023-02-17T06:25:35.316Z,2.95
2023-02-17T06:28:03.708Z,2.20
2023-02-17T06:30:32.475Z,2.22
2023-02-17T06:33:00.890Z,2.30
2023-02-17T06:35:29.236Z,1.45
2023-02-17T06:37:57.480Z,2.15
2023-02-17T06:40:27.527Z,1.83
2023-02-17T06:42:58.612Z,1.90
2023-02-17T06:45:26.990Z,2.20
2023-02-17T06:47:55.326Z,2.17
2023-02-17T06:50:26.110Z,2.28
2023-02-17T06:52:54.335Z,1.92
2023-02-17T06:55:22.408Z,2.42
2023-02-17T06:57:50.582Z,2.38
2023-02-17T07:00:21.893Z,2.42
2023-02-17T07:02:54.167Z,2.33
2023-02-17T07:05:24.503Z,2.55
2023-02-17T07:07:53.605Z,2.38
2023-02-17T07:10:21.720Z,1.85
2023-02-17T07:12:49.839Z,2.20
2023-02-17T07:15:18.298Z,2.75
2023-02-17T07:17:47.791Z,2.20
2023-02-17T07:20:16.060Z,1.65
2023-02-17T07:22:44.231Z,2.67
2023-02-17T07:25:12.872Z,1.98
2023-02-17T07:27:40.945Z,1.88
2023-02-17T07:30:10.152Z,2.00
2023-02-17T07:32:38.896Z,2.03
2023-02-17T07:35:08.968Z,2.17
2023-02-17T07:37:40.623Z,2.33
2023-02-17T07:40:09.456Z,2.00
2023-02-17T07:42:37.831Z,2.78
2023-02-17T07:45:07.239Z,2.30
2023-02-17T07:47:35.424Z,1.80
2023-02-17T07:50:03.740Z,1.92
2023-02-17T07:52:33.252Z,2.25
2023-02-17T07:55:01.683Z,2.20
2023-02-17T07:57:31.007Z,1.80
2023-02-17T07:59:59.176Z,1.80
2023-02-17T08:02:27.780Z,2.17
2023-02-17T08:04:56.225Z,2.40
2023-02-17T08:07:27.688Z,2.08
2023-02-17T08:10:15.391Z,2.22
2023-02-17T08:13:01.254Z,1.90
2023-02-17T08:15:29.821Z,1.85
2023-02-17T08:17:58.578Z,1.77
2023-02-17T08:20:27.428Z,2.95
2023-02-17T08:22:55.887Z,2.03
2023-02-17T08:25:25.597Z,1.88
2023-02-17T08:27:54.474Z,1.63
2023-02-17T08:32:55.189Z,1.90
2023-02-17T08:35:23.696Z,2.00
2023-02-17T08:37:51.965Z,1.65
2023-02-17T08:40:20.795Z,1.80
2023-02-17T08:42:50.491Z,2.37
2023-02-17T08:47:50.916Z,1.85
2023-02-17T08:50:20.225Z,2.17
2023-02-17T08:52:48.499Z,1.98
2023-02-17T08:55:19.034Z,1.80
2023-02-17T08:57:47.562Z,2.40
2023-02-17T09:00:19.257Z,1.75
2023-02-17T09:02:47.514Z,1.45
2023-02-17T09:05:16.396Z,1.85
2023-02-17T09:07:45.009Z,1.90
2023-02-17T09:10:14.649Z,1.85
2023-02-17T09:15:11.107Z,2.13
2023-02-17T09:17:42.248Z,2.22
2023-02-17T09:20:23.901Z,1.63
2023-02-17T09:22:53.412Z,1.50
2023-02-17T09:25:21.571Z,1.50
2023-02-17T09:27:50.829Z,1.75
2023-02-17T09:30:19.290Z,2.28
2023-02-17T09:32:48.845Z,2.00
2023-02-17T09:35:18.855Z,1.88
2023-02-17T09:37:47.369Z,1.75
2023-02-17T09:40:21.492Z,1.73
2023-02-17T09:42:50.226Z,1.58
2023-02-17T09:45:22.506Z,2.13
2023-02-17T09:47:56.113Z,1.75
2023-02-17T09:50:29.408Z,1.63
2023-02-17T09:53:02.478Z,1.33
2023-02-17T09:55:34.478Z,1.50
2023-02-17T09:58:07.539Z,1.65
2023-02-17T10:00:42.615Z,2.13
2023-02-17T10:03:18.448Z,1.80
2023-02-17T10:05:52.852Z,1.20
2023-02-17T10:08:27.107Z,1.65
2023-02-17T10:11:00.613Z,2.28
2023-02-17T10:13:35.409Z,1.63
2023-02-17T10:16:09.721Z,1.30
2023-02-17T10:18:45.947Z,1.50
2023-02-17T10:21:22.157Z,1.80
2023-02-17T10:23:52.204Z,1.98
2023-02-17T10:26:31.211Z,1.58
2023-02-17T10:29:06.287Z,1.90
2023-02-17T10:31:45.669Z,1.65
2023-02-17T10:34:27.790Z,1.30
2023-02-17T10:37:00.310Z,1.25
2023-02-17T10:39:47.588Z,1.50
2023-02-17T10:42:21.627Z,1.40
2023-02-17T10:44:52.130Z,1.77
2023-02-17T10:47:22.588Z,1.48
2023-02-17T10:49:56.742Z,1.60
2023-02-17T10:52:33.522Z,2.10
2023-02-17T10:55:21.911Z,1.50
2023-02-17T10:57:58.273Z,1.83
2023-02-17T11:00:27.306Z,1.60
2023-02-17T11:02:55.529Z,1.63
2023-02-17T11:05:28.937Z,1.35
2023-02-17T11:08:01.744Z,1.83
2023-02-17T11:10:32.732Z,1.60
2023-02-17T11:13:03.543Z,1.40
2023-02-17T11:15:38.395Z,1.35
2023-02-17T11:18:12.636Z,1.38
2023-02-17T11:20:43.140Z,1.60
2023-02-17T11:23:26.876Z,1.58
2023-02-17T11:26:02.233Z,1.73
2023-02-17T11:28:30.731Z,1.40
2023-02-17T11:31:02.634Z,1.98
2023-02-17T11:33:35.890Z,1.50
2023-02-17T11:36:08.570Z,1.58
2023-02-17T11:38:45.226Z,1.48
2023-02-17T11:41:13.581Z,1.80
2023-02-17T11:43:54.038Z,1.63
2023-02-17T11:46:32.749Z,1.48
2023-02-17T11:49:21.745Z,1.23
2023-02-17T11:52:00.587Z,0.90
2023-02-17T11:54:37.422Z,1.40
2023-02-17T11:57:23.459Z,1.15
2023-02-17T12:00:05.746Z,0.98
2023-02-17T12:03:20.779Z,1.00
2023-02-17T12:06:01.962Z,1.08
2023-02-17T12:08:45.792Z,0.90
2023-02-17T12:11:23.713Z,1.08
2023-02-17T12:14:15.927Z,1.08
2023-02-17T12:16:52.942Z,0.82
2023-02-17T12:19:41.262Z,0.70
2023-02-17T12:22:18.939Z,0.90
2023-02-17T12:25:20.566Z,1.10
2023-02-17T12:28:05.287Z,0.85
2023-02-17T12:30:46.259Z,1.33
2023-02-17T12:33:33.798Z,0.95
2023-02-17T12:36:04.913Z,0.82
2023-02-17T12:38:36.554Z,0.65
2023-02-17T12:41:09.036Z,0.70
2023-02-17T12:43:43.506Z,0.50
2023-02-17T12:46:15.536Z,0.50
2023-02-17T12:48:50.305Z,0.63
2023-02-17T12:51:24.290Z,1.05
2023-02-17T12:53:56.655Z,0.60
2023-02-17T12:56:51.736Z,0.90
2023-02-17T12:59:27.589Z,0.40
2023-02-17T13:02:00.519Z,0.60
2023-02-17T13:04:30.867Z,1.48
2023-02-17T13:07:19.111Z,0.57
2023-02-17T13:09:52.029Z,0.52
2023-02-17T13:12:44.559Z,1.10
2023-02-17T13:15:32.015Z,2.05
2023-02-17T13:18:03.569Z,1.05
2023-02-17T13:20:46.021Z,1.83
2023-02-17T13:23:27.330Z,0.70
2023-02-17T13:26:09.128Z,0.93
2023-02-17T13:28:40.222Z,0.95
2023-02-17T13:31:17.059Z,0.60
2023-02-17T13:33:49.501Z,0.57
2023-02-17T13:36:23.256Z,0.50
2023-02-17T13:39:01.408Z,0.40
2023-02-17T13:41:35.942Z,0.40
2023-02-17T13:44:27.042Z,0.40
2023-02-17T13:47:00.749Z,0.47
2023-02-17T13:49:33.409Z,0.40
2023-02-17T13:52:10.419Z,0.50
2023-02-17T13:54:39.171Z,0.63
2023-02-17T13:57:07.400Z,0.35
2023-02-17T13:59:38.074Z,0.45
2023-02-17T14:02:35.183Z,0.47
2023-02-17T14:05:17.581Z,0.40
2023-02-17T14:07:48.599Z,0.50
2023-02-17T14:10:23.550Z,0.35
2023-02-17T14:12:56.407Z,0.40
2023-02-17T14:15:27.811Z,0.32
2023-02-17T14:17:58.228Z,0.30
2023-02-17T14:20:35.430Z,0.43
2023-02-17T14:23:06.680Z,0.90
2023-02-17T14:25:38.274Z,0.52
2023-02-17T14:28:19.818Z,0.68
2023-02-17T14:30:49.013Z,0.25
2023-02-17T14:33:24.440Z,0.28
2023-02-17T14:35:55.792Z,0.60
2023-02-17T14:38:27.718Z,0.47
2023-02-17T14:40:57.922Z,0.60
2023-02-17T14:43:27.083Z,0.65
2023-02-17T14:45:55.510Z,0.40
2023-02-17T14:48:27.682Z,0.50
2023-02-17T14:50:58.346Z,0.35
2023-02-17T14:53:29.753Z,0.43
2023-02-17T14:56:01.829Z,0.50
2023-02-17T14:58:31.340Z,0.63
2023-02-17T15:01:02.391Z,0.50
2023-02-17T15:03:34.240Z,0.35
2023-02-17T15:06:03.122Z,0.50
2023-02-17T15:08:35.246Z,0.38
2023-02-17T15:11:03.929Z,0.77
2023-02-17T15:13:32.597Z,0.70
2023-02-17T15:16:01.216Z,1.05
2023-02-17T15:18:29.849Z,0.80
2023-02-17T15:20:59.693Z,1.73
2023-02-17T15:23:34.491Z,0.93
2023-02-17T15:26:02.799Z,1.70
2023-02-17T15:28:31.291Z,1.52
2023-02-17T15:30:59.908Z,0.95
2023-02-17T15:33:28.458Z,1.17
2023-02-17T15:35:59.191Z,1.20
2023-02-17T15:38:27.548Z,1.40
2023-02-17T15:40:58.675Z,1.08
2023-02-17T15:46:12.332Z,1.25
2023-02-17T15:48:40.989Z,1.20
2023-02-17T15:51:14.998Z,1.00
2023-02-17T15:53:43.888Z,1.45
2023-02-17T15:56:14.827Z,1.20
2023-02-17T15:58:43.653Z,0.80
2023-02-17T16:01:19.790Z,0.70
2023-02-17T16:03:50.877Z,0.90
2023-02-17T16:06:20.639Z,1.77
2023-02-17T16:11:18.615Z,0.88
2023-02-17T16:13:47.926Z,1.10
2023-02-17T16:16:18.981Z,1.05
2023-02-17T16:18:48.081Z,0.82
2023-02-17T16:21:17.271Z,0.90
2023-02-17T16:23:47.674Z,0.98
2023-02-17T16:26:29.626Z,0.90
2023-02-17T16:28:59.202Z,0.90
2023-02-17T16:31:28.251Z,0.95
2023-02-17T16:34:00.252Z,1.38
2023-02-17T16:36:33.696Z,1.13
2023-02-17T16:39:11.879Z,0.75
2023-02-17T16:41:41.886Z,1.00
2023-02-17T16:44:13.435Z,0.90
2023-02-17T16:46:47.985Z,0.80
2023-02-17T16:49:22.316Z,0.82
2023-02-17T16:51:53.273Z,0.82
2023-02-17T16:54:23.521Z,1.00
2023-02-17T16:56:53.795Z,0.95
2023-02-17T16:59:25.784Z,1.20
2023-02-17T17:01:55.278Z,1.08
2023-02-17T17:04:24.589Z,0.90
2023-02-17T17:06:53.635Z,1.15
2023-02-17T17:09:25.209Z,0.73
2023-02-17T17:11:53.639Z,0.77
2023-02-17T17:14:22.573Z,1.77
2023-02-17T17:16:55.806Z,0.88
2023-02-17T17:19:24.559Z,0.80
2023-02-17T17:21:53.121Z,1.02
2023-02-17T17:24:23.229Z,0.70
2023-02-17T17:26:52.904Z,1.23
2023-02-17T17:29:21.564Z,0.90
2023-02-17T17:31:50.090Z,1.95
2023-02-17T17:34:19.329Z,1.08
2023-02-17T17:36:49.124Z,1.10
2023-02-17T17:39:19.690Z,1.00
2023-02-17T17:41:50.302Z,1.15
2023-02-17T17:44:19.175Z,0.82
2023-02-17T17:46:48.085Z,1.00
2023-02-17T17:49:18.483Z,0.80
2023-02-17T17:51:47.189Z,0.93
2023-02-17T17:54:15.552Z,0.90
2023-02-17T17:56:44.891Z,0.90
2023-02-17T17:59:15.462Z,0.85
2023-02-17T18:01:45.853Z,0.95
2023-02-17T18:04:14.753Z,1.33
2023-02-17T18:06:45.407Z,1.00
2023-02-17T18:09:30.794Z,1.10
2023-02-17T18:12:02.981Z,1.05
2023-02-17T18:14:33.304Z,2.78
2023-02-17T18:17:01.922Z,2.20
2023-02-17T18:19:31.802Z,1.17
2023-02-17T18:22:00.549Z,1.23
2023-02-17T18:24:29.001Z,0.90
2023-02-17T18:26:57.347Z,1.08
2023-02-17T18:29:25.944Z,1.58
2023-02-17T18:31:55.758Z,1.10
2023-02-17T18:34:24.674Z,0.95
2023-02-17T18:36:53.124Z,1.20
2023-02-17T18:39:21.400Z,1.17
2023-02-17T18:41:50.044Z,1.13
2023-02-17T18:44:18.543Z,1.10
2023-02-17T18:46:46.949Z,0.95
2023-02-17T18:49:18.102Z,0.90
2023-02-17T18:51:46.550Z,0.70
2023-02-17T18:54:15.266Z,0.85
2023-02-17T18:56:44.354Z,1.10
2023-02-17T18:59:12.789Z,0.90
2023-02-17T19:01:43.198Z,0.70
2023-02-17T19:04:12.989Z,0.80
2023-02-17T19:09:10.653Z,1.00
2023-02-17T19:11:39.403Z,0.90
2023-02-17T19:14:07.968Z,0.85
2023-02-17T19:16:36.141Z,0.98
2023-02-17T19:19:05.540Z,0.75
2023-02-17T19:21:36.298Z,0.98
2023-02-17T19:24:06.393Z,1.63
2023-02-17T19:26:35.200Z,1.88
2023-02-17T19:29:03.576Z,1.02
2023-02-17T19:31:32.008Z,1.23
2023-02-17T19:34:00.378Z,1.92
2023-02-17T19:36:28.639Z,1.80
2023-02-17T19:38:58.305Z,1.13
2023-02-17T19:41:28.490Z,0.70
2023-02-17T19:43:57.094Z,1.00
2023-02-17T19:46:25.851Z,0.73
2023-02-17T19:48:54.293Z,1.20
2023-02-17T19:51:23.027Z,1.20
2023-02-17T19:53:51.507Z,1.10
2023-02-17T19:56:21.824Z,0.88
2023-02-17T19:58:51.870Z,1.00
2023-02-17T20:01:22.921Z,1.10
2023-02-17T20:03:53.923Z,0.88
2023-02-17T20:06:24.997Z,0.70
2023-02-17T20:08:55.609Z,1.10
2023-02-17T20:11:24.136Z,1.05
2023-02-17T20:13:54.995Z,1.30
2023-02-17T20:16:23.255Z,1.45
2023-02-17T20:18:52.793Z,1.30
2023-02-17T20:21:23.152Z,1.10
2023-02-17T20:23:51.909Z,1.30
2023-02-17T20:26:22.006Z,0.80
2023-02-17T20:28:51.158Z,0.85
2023-02-17T20:31:21.584Z,1.50
2023-02-17T20:33:49.915Z,1.30
2023-02-17T20:36:18.715Z,0.98
2023-02-17T20:38:47.879Z,1.77
2023-02-17T20:41:20.570Z,1.30
2023-02-17T20:43:50.303Z,1.50
2023-02-17T20:46:24.841Z,1.08
2023-02-17T20:48:53.570Z,1.25
2023-02-17T20:51:22.519Z,1.00
2023-02-17T20:53:51.220Z,1.02
2023-02-17T20:56:22.846Z,1.15
2023-02-17T20:58:52.001Z,1.15
2023-02-17T21:01:21.913Z,1.13
2023-02-17T21:03:50.701Z,1.10
2023-02-17T21:06:23.280Z,1.23
2023-02-17T21:08:53.843Z,1.45
2023-02-17T21:11:22.703Z,1.05
2023-02-17T21:13:51.085Z,1.33
2023-02-17T21:16:24.341Z,1.10
2023-02-17T21:18:53.022Z,1.20
2023-02-17T21:21:21.865Z,0.95
2023-02-17T21:23:50.186Z,1.23
2023-02-17T21:26:18.895Z,1.42
2023-02-17T21:28:47.745Z,1.38
2023-02-17T21:31:16.552Z,1.47
2023-02-17T21:33:46.761Z,1.58
2023-02-17T21:36:18.147Z,1.33
2023-02-17T21:38:47.364Z,1.45
2023-02-17T21:41:18.266Z,1.17
2023-02-17T21:44:04.006Z,1.17
2023-02-17T21:46:33.027Z,1.70
2023-02-17T21:49:03.382Z,1.73
2023-02-17T21:51:32.807Z,1.55
2023-02-17T21:54:01.358Z,1.10
2023-02-17T21:56:29.852Z,1.63
2023-02-17T21:58:58.309Z,1.00
2023-02-17T22:01:29.142Z,1.27
2023-02-17T22:03:58.601Z,1.35
2023-02-17T22:06:30.578Z,1.10
2023-02-17T22:09:00.055Z,1.27
2023-02-17T22:11:31.091Z,0.98
2023-02-17T22:14:00.975Z,1.25
2023-02-17T22:16:31.734Z,1.52
2023-02-17T22:19:00.396Z,1.23
2023-02-17T22:21:30.346Z,1.20
2023-02-17T22:23:59.651Z,2.10
2023-02-17T22:26:30.196Z,1.50
2023-02-17T22:28:58.859Z,1.42
2023-02-17T22:31:29.451Z,1.15
2023-02-17T22:33:59.524Z,1.52
2023-02-17T22:36:28.385Z,1.65
2023-02-17T22:38:58.032Z,1.40
2023-02-17T22:41:26.731Z,1.13
2023-02-17T22:43:55.858Z,1.50
2023-02-17T22:46:27.185Z,1.25
2023-02-17T22:48:57.430Z,1.23
2023-02-17T22:51:29.262Z,1.35
2023-02-17T22:54:00.750Z,1.38
2023-02-17T22:56:30.015Z,1.17
2023-02-17T22:59:00.963Z,1.38
2023-02-17T23:01:31.203Z,1.50
2023-02-17T23:04:00.633Z,1.70
2023-02-17T23:06:31.600Z,1.40
2023-02-17T23:09:02.234Z,1.25
2023-02-17T23:11:55.902Z,1.38
2023-02-17T23:14:27.094Z,1.25
2023-02-17T23:16:58.981Z,1.30
2023-02-17T23:19:28.564Z,0.95
2023-02-17T23:22:00.309Z,1.40
2023-02-17T23:24:30.652Z,1.23
2023-02-17T23:27:03.261Z,1.60
2023-02-17T23:29:32.838Z,1.65
2023-02-17T23:32:01.124Z,1.50
2023-02-17T23:34:29.477Z,1.58
2023-02-17T23:36:58.026Z,1.50
2023-02-17T23:39:26.861Z,1.67
2023-02-17T23:41:56.839Z,1.50
2023-02-17T23:44:25.750Z,1.70
2023-02-17T23:46:54.026Z,1.90
2023-02-17T23:49:22.269Z,1.95
2023-02-17T23:51:50.735Z,1.60
2023-02-17T23:54:19.368Z,1.60
2023-02-17T23:56:47.514Z,2.03
2023-02-17T23:59:19.374Z,1.40
